| time (UTC) | temp C | wind direction | speed KPH | gust KPH | rain 1hr cm | rain 24hr cm | rain mn cm | humidity % | barometer mb |
| 20260507154520 | 17 | 221 | 9.7 | 19.3 | 0.00 | 0.00 | 0.00 | 48 | 1014.8 |
| 20260507153022 | 17 | 236 | 11.3 | 19.3 | 0.00 | 0.00 | 0.00 | 50 | 1014.7 |
| 20260507151516 | 16 | 243 | 9.7 | 16.1 | 0.00 | 0.00 | 0.00 | 53 | 1014.9 |
| 20260507150014 | 16 | 217 | 8.0 | 12.9 | 0.00 | 0.00 | 0.00 | 53 | 1014.7 |
| 20260507144515 | 16 | 229 | 9.7 | 19.3 | 0.00 | 0.00 | 0.00 | 55 | 1014.6 |
| 20260507143012 | 15 | 257 | 11.3 | 17.7 | 0.00 | 0.00 | 0.00 | 55 | 1014.6 |
| 20260507141510 | 15 | 230 | 12.9 | 17.7 | 0.00 | 0.00 | 0.00 | 58 | 1014.5 |
| 20260507140009 | 15 | 225 | 6.4 | 11.3 | 0.00 | 0.00 | 0.00 | 61 | 1014.4 |
| 20260507134509 | 13 | 221 | 8.0 | 11.3 | 0.00 | 0.00 | 0.00 | 64 | 1014.2 |
| 20260507133008 | 11 | 209 | 6.4 | 12.9 | 0.00 | 0.00 | 0.00 | 74 | 1014.2 |
| 20260507131515 | 10 | 233 | 4.8 | 6.4 | 0.00 | 0.00 | 0.00 | 77 | 1014.1 |
| 20260507130005 | 9 | 236 | 4.8 | 8.0 | 0.00 | 0.00 | 0.00 | 79 | 1014.0 |
| 20260507124505 | 9 | 192 | 1.6 | 3.2 | 0.00 | 0.00 | 0.00 | 80 | 1014.0 |
| 20260507123003 | 10 | 250 | 1.6 | 4.8 | 0.00 | 0.00 | 0.00 | 78 | 1013.9 |
| 20260507121604 | 9 | 21 | 0.0 | 8.0 | 0.00 | 0.00 | 0.00 | 79 | 1013.8 |
| 20260507114556 | 11 | 148 | 1.6 | 4.8 | 0.00 | 0.00 | 0.00 | 76 | 1013.6 |
| 20260507113055 | 11 | 225 | 8.0 | 12.9 | 0.00 | 0.00 | 0.00 | 74 | 1013.4 |
| 20260507111553 | 11 | 161 | 1.6 | 4.8 | 0.00 | 0.00 | 0.00 | 74 | 1013.6 |
| 20260507111518 | 11 | 163 | 1.6 | 4.8 | 0.00 | 0.00 | 0.00 | 74 | 1013.6 |
| 20260507110052 | 11 | 86 | 3.2 | 4.8 | 0.00 | 0.00 | 0.00 | 74 | 1013.6 |
| 20260507104555 | 11 | 188 | 1.6 | 6.4 | 0.00 | 0.00 | 0.00 | 73 | 1013.5 |
| 20260507103049 | 11 | 208 | 0.0 | 6.4 | 0.00 | 0.00 | 0.00 | 72 | 1013.4 |
| 20260507101557 | 11 | 146 | 3.2 | 6.4 | 0.00 | 0.00 | 0.00 | 75 | 1013.3 |
| 20260507100055 | 12 | 242 | 4.8 | 9.7 | 0.00 | 0.00 | 0.00 | 70 | 1013.0 |
| 20260507094543 | 12 | 189 | 3.2 | 6.4 | 0.00 | 0.00 | 0.00 | 71 | 1013.1 |
| 20260507093042 | 13 | 209 | 0.0 | 4.8 | 0.00 | 0.00 | 0.00 | 69 | 1013.2 |
| 20260507091541 | 12 | 236 | 9.7 | 14.5 | 0.00 | 0.00 | 0.00 | 73 | 1013.0 |
| 20260507090039 | 13 | 215 | 11.3 | 17.7 | 0.00 | 0.00 | 0.00 | 69 | 1013.2 |
| 20260507084544 | 13 | 187 | 8.0 | 17.7 | 0.00 | 0.00 | 0.00 | 67 | 1013.3 |
| 20260507083048 | 13 | 178 | 1.6 | 4.8 | 0.00 | 0.00 | 0.00 | 69 | 1013.2 |
| 20260507081530 | 13 | 159 | 4.8 | 8.0 | 0.00 | 0.00 | 0.00 | 68 | 1013.0 |
| 20260507080029 | 13 | 186 | 3.2 | 6.4 | 0.00 | 0.00 | 0.00 | 67 | 1013.0 |
| 20260507074524 | 15 | 217 | 8.0 | 11.3 | 0.00 | 0.00 | 0.00 | 60 | 1012.9 |
| 20260507073021 | 17 | 235 | 12.9 | 19.3 | 0.00 | 0.00 | 0.00 | 56 | 1012.7 |
| 20260507071518 | 17 | 250 | 6.4 | 14.5 | 0.00 | 0.00 | 0.00 | 56 | 1012.7 |
| 20260507070016 | 16 | 290 | 3.2 | 8.0 | 0.00 | 0.00 | 0.00 | 56 | 1012.5 |
| 20260507064522 | 16 | 218 | 4.8 | 8.0 | 0.00 | 0.00 | 0.00 | 55 | 1012.4 |
| 20260507063019 | 17 | 184 | 4.8 | 11.3 | 0.00 | 0.00 | 0.00 | 53 | 1012.0 |
| 20260507061514 | 18 | 250 | 4.8 | 12.9 | 0.00 | 0.00 | 0.00 | 45 | 1011.9 |
| 20260507060019 | 20 | 221 | 8.0 | 14.5 | 0.00 | 0.00 | 0.00 | 41 | 1011.8 |
| 20260507054513 | 18 | 249 | 8.0 | 11.3 | 0.00 | 0.00 | 0.00 | 45 | 1011.9 |
| 20260507053013 | 19 | 67 | 3.2 | 11.3 | 0.00 | 0.00 | 0.00 | 47 | 1011.8 |
| 20260507051513 | 20 | 111 | 3.2 | 14.5 | 0.00 | 0.00 | 0.00 | 39 | 1011.7 |
| 20260507050012 | 20 | 238 | 9.7 | 14.5 | 0.00 | 0.00 | 0.00 | 37 | 1011.6 |
| 20260507044511 | 20 | 233 | 8.0 | 11.3 | 0.00 | 0.00 | 0.00 | 38 | 1011.7 |
| 20260507043011 | 22 | 346 | 1.6 | 4.8 | 0.00 | 0.00 | 0.00 | 37 | 1011.5 |
| 20260507041525 | 23 | 145 | 0.0 | 6.4 | 0.00 | 0.00 | 0.00 | 32 | 1011.4 |
| 20260507040010 | 23 | 237 | 9.7 | 20.9 | 0.00 | 0.00 | 0.00 | 31 | 1011.1 |
| 20260507034515 | 21 | 225 | 9.7 | 12.9 | 0.00 | 0.00 | 0.00 | 37 | 1011.0 |
| 20260507033009 | 23 | 238 | 4.8 | 9.7 | 0.00 | 0.00 | 0.00 | 33 | 1010.9 |
| 20260507031508 | 22 | 194 | 3.2 | 6.4 | 0.00 | 0.00 | 0.00 | 36 | 1010.8 |
| 20260507030006 | 22 | 103 | 0.0 | 4.8 | 0.00 | 0.00 | 0.00 | 39 | 1010.5 |
| 20260507024507 | 23 | 84 | 1.6 | 4.8 | 0.00 | 0.00 | 0.00 | 39 | 1010.3 |
| 20260507023008 | 24 | 138 | 1.6 | 4.8 | 0.00 | 0.00 | 0.00 | 40 | 1010.2 |
| 20260507021506 | 25 | 304 | 1.6 | 8.0 | 0.00 | 0.00 | 0.00 | 32 | 1010.1 |
| 20260507020006 | 26 | 278 | 4.8 | 16.1 | 0.00 | 0.00 | 0.00 | 30 | 1010.0 |
| 20260507014510 | 25 | 281 | 4.8 | 9.7 | 0.00 | 0.00 | 0.00 | 32 | 1009.8 |
| 20260507013005 | 26 | 315 | 3.2 | 9.7 | 0.00 | 0.00 | 0.00 | 32 | 1009.8 |
| 20260507011504 | 26 | 322 | 1.6 | 9.7 | 0.00 | 0.00 | 0.00 | 35 | 1009.7 |
| 20260507010004 | 26 | 275 | 6.4 | 16.1 | 0.00 | 0.00 | 0.00 | 42 | 1009.4 |
| 20260507004510 | 26 | 163 | 14.5 | 24.1 | 0.00 | 0.00 | 0.00 | 42 | 1009.2 |
| 20260507003003 | 27 | 188 | 16.1 | 27.4 | 0.00 | 0.00 | 0.00 | 41 | 1009.0 |
| 20260507001502 | 27 | 184 | 16.1 | 32.2 | 0.00 | 0.00 | 0.00 | 41 | 1009.0 |
| 20260507000002 | 27 | 175 | 19.3 | 29.0 | 0.00 | 0.00 | 0.00 | 39 | 1008.8 |
| 20260506234501 | 28 | 204 | 20.9 | 32.2 | 0.00 | 0.00 | 0.00 | 34 | 1008.8 |
| 20260506233001 | 28 | 162 | 19.3 | 32.2 | 0.00 | 0.00 | 0.00 | 34 | 1008.8 |
| 20260506231600 | 28 | 205 | 20.9 | 33.8 | 0.00 | 0.00 | 0.00 | 34 | 1008.9 |
| 20260506230100 | 28 | 207 | 14.5 | 32.2 | 0.00 | 0.00 | 0.00 | 35 | 1009.0 |
| 20260506224557 | 28 | 183 | 17.7 | 30.6 | 0.00 | 0.00 | 0.00 | 35 | 1009.4 |
| 20260506223058 | 28 | 205 | 17.7 | 29.0 | 0.00 | 0.00 | 0.00 | 32 | 1009.6 |
| 20260506221555 | 28 | 175 | 14.5 | 27.4 | 0.00 | 0.00 | 0.00 | 32 | 1009.8 |
| 20260506220057 | 29 | 217 | 11.3 | 20.9 | 0.00 | 0.00 | 0.00 | 29 | 1010.0 |
| 20260506214553 | 28 | 207 | 12.9 | 24.1 | 0.00 | 0.00 | 0.00 | 30 | 1010.0 |
| 20260506213108 | 28 | 190 | 14.5 | 30.6 | 0.00 | 0.00 | 0.00 | 31 | 1010.2 |
| 20260506211604 | 28 | 209 | 14.5 | 30.6 | 0.00 | 0.00 | 0.00 | 30 | 1010.4 |
| 20260506210051 | 28 | 166 | 19.3 | 33.8 | 0.00 | 0.00 | 0.00 | 33 | 1010.7 |
| 20260506204556 | 28 | 227 | 16.1 | 24.1 | 0.00 | 0.00 | 0.00 | 33 | 1010.7 |
| 20260506203052 | 28 | 196 | 17.7 | 32.2 | 0.00 | 0.00 | 0.00 | 33 | 1010.8 |
| 20260506201558 | 28 | 188 | 19.3 | 33.8 | 0.00 | 0.00 | 0.00 | 34 | 1010.8 |
| 20260506200048 | 27 | 188 | 27.4 | 37.0 | 0.00 | 0.00 | 0.00 | 34 | 1011.0 |
| 20260506194556 | 27 | 206 | 16.1 | 27.4 | 0.00 | 0.00 | 0.00 | 36 | 1011.2 |
| 20260506193044 | 27 | 191 | 16.1 | 27.4 | 0.00 | 0.00 | 0.00 | 36 | 1011.3 |
| 20260506191545 | 26 | 194 | 16.1 | 29.0 | 0.00 | 0.00 | 0.00 | 39 | 1011.3 |
| 20260506190037 | 26 | 188 | 16.1 | 33.8 | 0.00 | 0.00 | 0.00 | 40 | 1011.3 |
| 20260506184535 | 25 | 180 | 24.1 | 35.4 | 0.00 | 0.00 | 0.00 | 41 | 1011.4 |
| 20260506183042 | 25 | 210 | 17.7 | 32.2 | 0.00 | 0.00 | 0.00 | 43 | 1011.4 |
| 20260506181534 | 25 | 202 | 20.9 | 29.0 | 0.00 | 0.00 | 0.00 | 42 | 1011.6 |
| 20260506180035 | 24 | 194 | 16.1 | 25.7 | 0.00 | 0.00 | 0.00 | 42 | 1011.8 |
| 20260506174530 | 24 | 201 | 14.5 | 32.2 | 0.00 | 0.00 | 0.00 | 44 | 1011.8 |
| 20260506173028 | 23 | 219 | 14.5 | 25.7 | 0.00 | 0.00 | 0.00 | 45 | 1011.9 |
| 20260506171530 | 23 | 184 | 12.9 | 20.9 | 0.00 | 0.00 | 0.00 | 48 | 1012.1 |
| 20260506170024 | 22 | 232 | 12.9 | 22.5 | 0.00 | 0.00 | 0.00 | 49 | 1012.3 |
| 20260506164523 | 21 | 200 | 14.5 | 29.0 | 0.00 | 0.00 | 0.00 | 52 | 1012.4 |
| 20260506163020 | 21 | 221 | 14.5 | 22.5 | 0.00 | 0.00 | 0.00 | 53 | 1012.4 |
| 20260506161518 | 21 | 211 | 16.1 | 25.7 | 0.00 | 0.00 | 0.00 | 54 | 1012.5 |
| 20260506160017 | 20 | 182 | 14.5 | 22.5 | 0.00 | 0.00 | 0.00 | 55 | 1012.4 |